createdAt,value
2019-01-20T09:01:26.510Z,551.25
2019-01-20T09:02:26.485Z,725.62
2019-01-20T09:03:26.473Z,787.50
2019-01-20T09:04:26.460Z,663.75
2019-01-20T09:05:26.449Z,410.62
2019-01-20T09:06:26.465Z,343.12
2019-01-20T09:07:26.427Z,517.50
2019-01-20T09:08:26.416Z,714.38
2019-01-20T09:09:26.409Z,855.00
2019-01-20T09:10:26.398Z,877.50
2019-01-20T09:11:26.401Z,900.00
2019-01-20T09:12:26.373Z,905.62
2019-01-20T09:13:26.385Z,911.25
2019-01-20T09:14:26.347Z,916.88
2019-01-20T09:15:26.335Z,905.62
2019-01-20T09:16:26.344Z,905.62
2019-01-20T09:17:26.314Z,916.88
2019-01-20T09:18:26.303Z,916.88
2019-01-20T09:19:26.290Z,916.88
2019-01-20T09:20:26.279Z,939.38
2019-01-20T09:21:26.291Z,967.50
2019-01-20T09:22:26.260Z,973.12
2019-01-20T09:23:26.254Z,995.62
2019-01-20T09:24:26.250Z,1046.25
2019-01-20T09:25:26.220Z,1057.50
2019-01-20T09:26:26.210Z,1080.00
2019-01-20T09:27:26.217Z,1096.88
2019-01-20T09:28:26.185Z,1108.12
2019-01-20T09:29:26.185Z,1130.62
2019-01-20T09:30:26.164Z,1170.00
2019-01-20T09:31:26.151Z,1198.12
2019-01-20T09:32:26.158Z,1231.88
2019-01-20T09:33:26.129Z,1254.38
2019-01-20T09:34:26.117Z,1282.50
2019-01-20T09:35:27.373Z,1299.38
2019-01-20T09:36:26.093Z,1288.12
2019-01-20T09:37:26.100Z,1271.25
2019-01-20T09:38:26.070Z,1237.50
2019-01-20T09:39:26.057Z,1215.00
2019-01-20T09:40:26.047Z,1181.25
2019-01-20T09:41:26.037Z,1147.50
2019-01-20T09:42:26.046Z,1130.62
2019-01-20T09:43:26.011Z,1108.12
2019-01-20T09:44:26.002Z,1074.38
2019-01-20T09:45:25.988Z,1057.50
2019-01-20T09:46:33.012Z,1046.25
2019-01-20T09:47:49.525Z,995.62
2019-01-20T09:48:49.495Z,191.25
2019-01-20T09:49:49.485Z,978.75
2019-01-20T09:50:49.472Z,1023.75
2019-01-20T09:51:49.462Z,1023.75
2019-01-20T09:52:49.479Z,1023.75
2019-01-20T09:53:49.438Z,1018.12
2019-01-20T09:54:49.426Z,1018.12
2019-01-20T09:55:49.416Z,1029.38
2019-01-20T09:56:49.410Z,1023.75
2019-01-20T09:57:49.392Z,1035.00
2019-01-20T09:58:49.400Z,1046.25
2019-01-20T09:59:49.367Z,1046.25
2019-01-20T10:00:49.356Z,1051.88
2019-01-20T10:01:49.343Z,1057.50
2019-01-20T10:02:49.378Z,1063.12
2019-01-20T10:03:49.338Z,1063.12
2019-01-20T10:04:49.310Z,1068.75
2019-01-20T10:05:49.297Z,1074.38
2019-01-20T10:06:49.286Z,1074.38
2019-01-20T10:07:49.281Z,1080.00
2019-01-20T10:08:49.279Z,1091.25
2019-01-20T10:09:49.253Z,1091.25
2019-01-20T10:10:49.238Z,1096.88
2019-01-20T10:11:49.225Z,1096.88
2019-01-20T10:12:49.217Z,1108.12
2019-01-20T10:13:54.819Z,1108.12
2019-01-20T10:14:50.188Z,1113.75
2019-01-20T10:15:52.203Z,1125.00
2019-01-20T10:16:49.167Z,1136.25
2019-01-20T10:17:49.155Z,1170.00
2019-01-20T10:18:49.171Z,1243.12
2019-01-20T10:19:49.131Z,1305.00
2019-01-20T10:20:49.119Z,1293.75
2019-01-20T10:21:49.106Z,1299.38
2019-01-20T10:22:49.134Z,1333.12
2019-01-20T10:23:49.104Z,1299.38
2019-01-20T10:24:49.072Z,1288.12
2019-01-20T10:25:49.063Z,1282.50
2019-01-20T10:26:49.058Z,1310.62
2019-01-20T10:27:49.040Z,1383.75
2019-01-20T10:28:49.047Z,1400.62
2019-01-20T10:29:49.016Z,1282.50
2019-01-20T10:30:49.005Z,1231.88
2019-01-20T10:31:48.997Z,1243.12
2019-01-20T10:32:48.983Z,1254.38
2019-01-20T10:33:48.991Z,1350.00
2019-01-20T10:34:48.959Z,1378.12
2019-01-20T10:35:48.953Z,1299.38
2019-01-20T10:36:48.936Z,1299.38
2019-01-20T10:37:48.925Z,1338.75
2019-01-20T10:38:48.937Z,1299.38
2019-01-20T10:39:48.903Z,1237.50
2019-01-20T10:40:48.890Z,1215.00
2019-01-20T10:41:48.878Z,1220.62
2019-01-20T10:42:48.868Z,1215.00
2019-01-20T10:43:48.881Z,1203.75
2019-01-20T10:44:48.843Z,1203.75
2019-01-20T10:45:48.838Z,1203.75
2019-01-20T10:46:48.821Z,1209.38
2019-01-20T10:47:48.808Z,1209.38
2019-01-20T10:48:48.804Z,1226.25
2019-01-20T10:49:48.803Z,1254.38
2019-01-20T10:50:48.775Z,1344.38
2019-01-20T10:51:48.763Z,1541.25
2019-01-20T10:52:48.750Z,1575.00
2019-01-20T10:53:53.060Z,1321.88
2019-01-20T10:54:48.744Z,1327.50
2019-01-20T10:55:48.729Z,1378.12
2019-01-20T10:56:48.705Z,1496.25
2019-01-20T10:57:48.692Z,1501.88
2019-01-20T10:58:48.696Z,1496.25
2019-01-20T10:59:48.669Z,1428.75
2019-01-20T11:00:48.655Z,1389.38
2019-01-20T11:01:48.657Z,1383.75
2019-01-20T11:02:48.635Z,1400.62
2019-01-20T11:03:48.641Z,1411.88
2019-01-20T11:04:48.608Z,1338.75
2019-01-20T11:05:48.598Z,1288.12
2019-01-20T11:06:48.586Z,1299.38
2019-01-20T11:07:48.579Z,1490.62
2019-01-20T11:08:48.580Z,1636.88
2019-01-20T11:09:49.799Z,1546.88
2019-01-20T11:10:48.539Z,1361.25
2019-01-20T11:11:48.524Z,1237.50
2019-01-20T11:12:48.513Z,1215.00
2019-01-20T11:13:48.521Z,1215.00
2019-01-20T11:14:48.490Z,1243.12
2019-01-20T11:15:48.479Z,1293.75
2019-01-20T11:16:48.468Z,1288.12
2019-01-20T11:17:48.454Z,1243.12
2019-01-20T11:18:48.466Z,1237.50
2019-01-20T11:19:48.440Z,1243.12
2019-01-20T11:20:48.419Z,1046.25
2019-01-20T11:21:48.408Z,826.88
2019-01-20T11:22:48.395Z,731.25
2019-01-20T11:23:48.383Z,826.88
2019-01-20T11:24:48.393Z,1046.25
2019-01-20T11:25:48.361Z,1220.62
2019-01-20T11:26:48.347Z,1243.12
2019-01-20T11:27:48.338Z,1147.50
2019-01-20T11:28:48.323Z,1102.50
2019-01-20T11:29:48.331Z,1153.12
2019-01-20T11:30:48.299Z,1209.38
2019-01-20T11:31:48.289Z,1220.62
2019-01-20T11:32:48.276Z,1248.75
2019-01-20T11:33:48.263Z,1271.25
2019-01-20T11:34:48.272Z,1254.38
2019-01-20T11:35:48.239Z,1215.00
2019-01-20T11:36:48.230Z,1198.12
2019-01-20T11:37:48.217Z,1203.75
2019-01-20T11:38:48.204Z,1215.00
2019-01-20T11:39:48.216Z,1231.88
2019-01-20T11:40:48.837Z,1248.75
2019-01-20T11:41:48.169Z,1231.88
2019-01-20T11:42:48.157Z,1220.62
2019-01-20T11:43:48.149Z,1220.62
2019-01-20T11:44:48.132Z,1192.50
2019-01-20T11:45:48.138Z,1186.88
2019-01-20T11:46:48.108Z,1192.50
2019-01-20T11:47:48.098Z,1220.62
2019-01-20T11:48:48.093Z,1158.75
2019-01-20T11:49:48.074Z,1164.38
2019-01-20T11:50:48.080Z,1158.75
2019-01-20T11:51:48.071Z,1170.00
2019-01-20T11:52:48.040Z,1237.50
2019-01-20T11:53:48.028Z,1276.88
2019-01-20T11:54:48.015Z,1215.00
2019-01-20T11:55:48.022Z,1164.38
2019-01-20T11:56:47.989Z,1080.00
2019-01-20T11:57:47.981Z,1147.50
2019-01-20T11:58:47.967Z,1198.12
2019-01-20T11:59:47.953Z,1181.25
2019-01-20T12:00:47.963Z,1141.88
2019-01-20T12:01:47.931Z,1125.00
2019-01-20T12:02:47.923Z,1136.25
2019-01-20T12:03:47.909Z,1141.88
2019-01-20T12:04:47.897Z,1119.38
2019-01-20T12:05:47.905Z,1125.00
2019-01-20T12:06:47.873Z,1158.75
2019-01-20T12:07:47.862Z,1136.25
2019-01-20T12:08:47.849Z,1085.62
2019-01-20T12:09:47.837Z,1085.62
2019-01-20T12:10:47.849Z,1096.88
2019-01-20T12:11:47.816Z,1068.75
2019-01-20T12:12:47.802Z,1057.50
2019-01-20T12:13:47.793Z,1108.12
2019-01-20T12:14:47.780Z,1108.12
2019-01-20T12:15:47.767Z,1080.00
2019-01-20T12:16:47.775Z,1063.12
2019-01-20T12:17:47.747Z,1046.25
2019-01-20T12:18:47.735Z,1018.12
2019-01-20T12:19:47.723Z,1029.38
2019-01-20T12:20:47.710Z,1068.75
2019-01-20T12:21:47.718Z,1074.38
2019-01-20T12:22:47.688Z,1012.50
2019-01-20T12:23:47.675Z,984.38
2019-01-20T12:24:47.663Z,973.12
2019-01-20T12:25:47.651Z,973.12
2019-01-20T12:26:47.662Z,984.38
2019-01-20T12:27:47.628Z,961.88
2019-01-20T12:28:47.615Z,961.88
2019-01-20T12:29:51.854Z,995.62
2019-01-20T12:30:47.592Z,1012.50
2019-01-20T12:31:47.584Z,1001.25
2019-01-20T12:32:47.586Z,961.88
2019-01-20T12:33:47.555Z,945.00
2019-01-20T12:34:47.548Z,945.00
2019-01-20T12:35:47.533Z,928.12
2019-01-20T12:36:47.522Z,933.75
2019-01-20T12:37:47.528Z,967.50
2019-01-20T12:38:47.498Z,939.38
2019-01-20T12:39:47.490Z,905.62
2019-01-20T12:40:47.474Z,900.00
2019-01-20T12:41:47.465Z,900.00
2019-01-20T12:42:47.470Z,916.88
2019-01-20T12:43:47.439Z,888.75
2019-01-20T12:44:47.428Z,855.00
2019-01-20T12:45:47.417Z,900.00
2019-01-20T12:46:47.406Z,933.75
2019-01-20T12:47:47.414Z,883.12
2019-01-20T12:48:47.381Z,843.75
2019-01-20T12:49:47.373Z,860.62
2019-01-20T12:50:47.358Z,860.62
2019-01-20T12:51:47.346Z,911.25
2019-01-20T12:52:47.359Z,933.75
2019-01-20T12:53:47.322Z,855.00
2019-01-20T12:54:47.310Z,838.12
2019-01-20T12:55:47.298Z,832.50
2019-01-20T12:56:47.387Z,759.38
2019-01-20T12:57:47.274Z,714.38
2019-01-20T12:58:47.283Z,781.88
2019-01-20T12:59:47.253Z,697.50
2019-01-20T13:00:47.238Z,804.38
2019-01-20T13:01:47.227Z,787.50
2019-01-20T13:02:47.216Z,776.25
2019-01-20T13:03:47.223Z,748.12
2019-01-20T13:04:47.190Z,748.12
2019-01-20T13:05:47.181Z,725.62
2019-01-20T13:06:47.170Z,720.00
2019-01-20T13:07:47.159Z,720.00
2019-01-20T13:08:47.162Z,731.25
2019-01-20T13:09:47.131Z,720.00
2019-01-20T13:10:47.118Z,714.38
2019-01-20T13:11:47.106Z,714.38
2019-01-20T13:12:47.096Z,736.88
2019-01-20T13:13:47.101Z,725.62
2019-01-20T13:14:47.071Z,703.12
2019-01-20T13:15:47.061Z,686.25
2019-01-20T13:16:47.048Z,675.00
2019-01-20T13:17:47.041Z,680.62
2019-01-20T13:18:47.045Z,675.00
2019-01-20T13:19:47.013Z,691.88
2019-01-20T13:20:47.001Z,691.88
2019-01-20T13:21:46.989Z,686.25
2019-01-20T13:22:46.977Z,675.00
2019-01-20T13:23:46.965Z,669.38
2019-01-20T13:24:46.970Z,680.62
2019-01-20T13:25:46.941Z,675.00
2019-01-20T13:26:46.930Z,630.00
2019-01-20T13:27:46.918Z,573.75
2019-01-20T13:28:46.905Z,652.50
2019-01-20T13:29:46.915Z,646.88
2019-01-20T13:30:46.885Z,646.88
2019-01-20T13:31:46.886Z,658.12
2019-01-20T13:32:46.860Z,663.75
2019-01-20T13:33:46.848Z,646.88
2019-01-20T13:34:46.860Z,646.88
2019-01-20T13:35:46.833Z,641.25
2019-01-20T13:36:46.815Z,630.00
2019-01-20T13:37:46.802Z,624.38
2019-01-20T13:38:46.792Z,630.00
2019-01-20T13:39:46.779Z,613.12
2019-01-20T13:40:46.785Z,607.50
2019-01-20T13:41:46.759Z,613.12
2019-01-20T13:42:46.754Z,618.75
2019-01-20T13:43:46.734Z,601.88
2019-01-20T13:44:46.720Z,579.38
2019-01-20T13:45:46.737Z,585.00
2019-01-20T13:46:46.697Z,596.25
2019-01-20T13:47:48.882Z,568.12
2019-01-20T13:48:46.675Z,568.12
2019-01-20T13:49:46.663Z,556.88
2019-01-20T13:50:46.650Z,551.25
2019-01-20T13:51:46.660Z,556.88
2019-01-20T13:52:46.630Z,551.25
2019-01-20T13:53:46.617Z,545.62
2019-01-20T13:54:46.605Z,545.62
2019-01-20T13:55:46.593Z,551.25
2019-01-20T13:56:46.600Z,511.88
2019-01-20T13:57:46.569Z,410.62
2019-01-20T13:58:46.564Z,399.38
2019-01-20T13:59:46.549Z,461.25
2019-01-20T14:00:46.534Z,523.12
2019-01-20T14:01:46.543Z,534.38
2019-01-20T14:02:46.513Z,523.12
2019-01-20T14:03:46.500Z,511.88
2019-01-20T14:04:46.487Z,461.25
2019-01-20T14:05:46.475Z,455.62
2019-01-20T14:06:46.482Z,427.50
2019-01-20T14:07:46.452Z,360.00
2019-01-20T14:08:46.440Z,337.50
2019-01-20T14:09:46.427Z,371.25
2019-01-20T14:10:46.415Z,405.00
2019-01-20T14:11:46.423Z,399.38
2019-01-20T14:12:46.396Z,500.62
2019-01-20T14:13:46.383Z,506.25
2019-01-20T14:14:46.369Z,382.50
2019-01-20T14:15:46.357Z,337.50
2019-01-20T14:16:46.391Z,343.12
2019-01-20T14:17:46.334Z,495.00
2019-01-20T14:18:46.323Z,641.25
2019-01-20T14:19:46.312Z,601.88
2019-01-20T14:20:46.302Z,444.38
2019-01-20T14:21:46.286Z,444.38
2019-01-20T14:22:46.297Z,596.25
2019-01-20T14:23:46.265Z,652.50
2019-01-20T14:24:46.253Z,691.88
2019-01-20T14:25:46.243Z,725.62
2019-01-20T14:26:46.230Z,765.00
2019-01-20T14:27:46.237Z,821.25
2019-01-20T14:28:46.207Z,871.88
2019-01-20T14:29:46.195Z,826.88
2019-01-20T14:30:46.183Z,686.25
2019-01-20T14:31:46.171Z,540.00
2019-01-20T14:32:46.183Z,444.38
2019-01-20T14:33:46.154Z,399.38
2019-01-20T14:34:46.138Z,376.88
2019-01-20T14:35:46.125Z,365.62
2019-01-20T14:36:46.114Z,354.38
2019-01-20T14:37:46.102Z,343.12
2019-01-20T14:38:46.110Z,331.88
2019-01-20T14:39:46.078Z,320.62
2019-01-20T14:40:46.068Z,315.00
2019-01-20T14:41:46.056Z,303.75
2019-01-20T14:42:46.045Z,298.12
2019-01-20T14:43:46.054Z,292.50
2019-01-20T14:44:46.024Z,286.88
2019-01-20T14:45:46.010Z,286.88
2019-01-20T14:46:45.999Z,286.88
2019-01-20T14:47:45.990Z,286.88
2019-01-20T14:48:45.995Z,275.62
2019-01-20T14:49:45.964Z,270.00
2019-01-20T14:50:45.952Z,270.00
2019-01-20T14:51:45.941Z,264.38
2019-01-20T14:52:45.933Z,258.75
2019-01-20T14:53:45.936Z,258.75
2019-01-20T14:54:45.908Z,253.12
2019-01-20T14:55:45.898Z,247.50
2019-01-20T14:56:45.882Z,241.88
2019-01-20T14:57:45.872Z,236.25
2019-01-20T14:58:45.883Z,236.25
2019-01-20T14:59:45.849Z,213.75
2019-01-20T15:00:45.836Z,191.25
2019-01-20T15:01:45.824Z,168.75
2019-01-20T15:02:45.812Z,157.50
2019-01-20T15:03:45.801Z,151.88
2019-01-20T15:04:45.807Z,146.25
2019-01-20T15:05:45.778Z,140.62
2019-01-20T15:06:45.765Z,135.00
2019-01-20T15:07:45.755Z,129.38
2019-01-20T15:08:45.741Z,129.38
2019-01-20T15:09:45.751Z,129.38
2019-01-20T15:10:45.718Z,123.75
2019-01-20T15:11:45.706Z,123.75
2019-01-20T15:12:45.695Z,118.12
2019-01-20T15:13:45.682Z,118.12
2019-01-20T15:14:45.671Z,112.50
2019-01-20T15:15:45.685Z,112.50
2019-01-20T15:16:45.649Z,106.88
2019-01-20T15:17:45.635Z,106.88
2019-01-20T15:18:45.627Z,101.25
2019-01-20T15:19:45.614Z,95.62
2019-01-20T15:20:45.623Z,95.62
2019-01-20T15:21:45.591Z,95.62
2019-01-20T15:22:45.605Z,90.00
2019-01-20T15:23:45.568Z,90.00
2019-01-20T15:24:45.557Z,84.38
2019-01-20T15:25:45.564Z,84.38
2019-01-20T15:26:45.535Z,78.75
2019-01-20T15:27:45.525Z,78.75
2019-01-20T15:28:45.512Z,78.75
2019-01-20T15:29:45.502Z,73.12
2019-01-20T15:30:45.507Z,73.12
2019-01-20T15:31:45.477Z,67.50
2019-01-20T15:32:45.464Z,67.50
2019-01-20T15:33:45.465Z,61.88
2019-01-20T15:34:45.442Z,61.88
2019-01-20T15:35:45.455Z,61.88
2019-01-20T15:36:45.418Z,56.25
2019-01-20T15:37:45.406Z,56.25
2019-01-20T15:38:45.398Z,50.62
2019-01-20T15:39:45.383Z,50.62
2019-01-20T15:40:45.378Z,50.62
2019-01-20T15:41:45.379Z,45.00
2019-01-20T15:42:45.348Z,45.00
2019-01-20T15:43:45.337Z,39.38
2019-01-20T15:44:45.326Z,39.38
2019-01-20T15:45:45.312Z,39.38
2019-01-20T15:46:52.347Z,33.75
2019-01-20T15:47:45.290Z,33.75
2019-01-20T15:48:45.281Z,33.75
2019-01-20T15:49:45.267Z,28.12
2019-01-20T15:50:45.257Z,28.12
2019-01-20T15:51:45.262Z,28.12
2019-01-20T15:52:45.235Z,22.50
2019-01-20T15:53:45.220Z,22.50
2019-01-20T15:54:45.209Z,22.50
2019-01-20T15:55:45.196Z,22.50
2019-01-20T15:56:45.207Z,16.88
2019-01-20T15:57:45.173Z,16.88
2019-01-20T15:58:45.168Z,16.88
2019-01-20T15:59:45.150Z,16.88
2019-01-20T16:00:45.139Z,11.25
2019-01-20T16:01:45.126Z,11.25
2019-01-20T16:02:45.137Z,11.25
2019-01-20T16:03:45.106Z,11.25
2019-01-20T16:04:45.098Z,11.25
2019-01-20T16:05:45.081Z,5.62
2019-01-20T16:06:45.068Z,5.62
2019-01-20T16:07:45.077Z,5.62
2019-01-20T16:08:45.049Z,5.62
2019-01-20T16:09:45.034Z,5.62
2019-01-20T16:10:45.022Z,5.62
2019-01-20T16:11:45.012Z,0.00
2019-01-20T16:12:45.018Z,0.00
2019-01-20T16:13:44.988Z,0.00
2019-01-20T16:14:44.976Z,0.00
2019-01-20T16:15:44.965Z,0.00
2019-01-20T16:16:44.954Z,0.00
2019-01-20T16:17:44.962Z,0.00
2019-01-20T16:18:44.935Z,0.00
2019-01-20T16:19:44.919Z,0.00
2019-01-20T16:20:44.911Z,0.00
2019-01-20T16:21:44.899Z,0.00
2019-01-20T16:22:44.902Z,0.00
2019-01-20T16:23:44.872Z,0.00
2019-01-20T16:24:44.860Z,0.00
2019-01-20T16:25:44.857Z,0.00
2019-01-20T16:26:44.838Z,0.00
2019-01-20T16:27:44.843Z,0.00
2019-01-20T16:28:44.816Z,0.00
2019-01-20T16:29:44.804Z,0.00
2019-01-20T16:30:44.792Z,0.00
2019-01-20T16:31:44.782Z,0.00
2019-01-20T16:32:44.794Z,0.00
2019-01-20T16:33:44.761Z,0.00
2019-01-20T16:34:44.752Z,0.00
2019-01-20T16:35:44.734Z,0.00
2019-01-20T16:36:44.722Z,0.00
2019-01-20T16:37:44.712Z,0.00
2019-01-20T16:38:44.717Z,0.00
2019-01-20T16:39:45.900Z,0.00
2019-01-20T16:40:44.677Z,0.00
2019-01-20T16:41:44.666Z,0.00
2019-01-20T16:42:44.677Z,0.00
2019-01-20T16:43:44.641Z,0.00
2019-01-20T16:44:44.631Z,0.00
2019-01-20T16:45:44.618Z,0.00
2019-01-20T16:46:44.617Z,0.00
